sensor_id;sensor_type;location;lat;lon;timestamp;pressure;altitude;pressure_sealevel;temperature;humidity
14612;BME280;7392;52.078;11.650;2023-08-06T00:00:54;100065.25;;;17.56;92.35
14612;BME280;7392;52.078;11.650;2023-08-06T00:03:22;100063.63;;;17.52;92.48
14612;BME280;7392;52.078;11.650;2023-08-06T00:05:51;100057.56;;;17.47;92.79
14612;BME280;7392;52.078;11.650;2023-08-06T00:08:19;100062.25;;;17.42;93.39
14612;BME280;7392;52.078;11.650;2023-08-06T00:10:47;100056.13;;;17.38;93.67
14612;BME280;7392;52.078;11.650;2023-08-06T00:13:15;100057.16;;;17.35;94.11
14612;BME280;7392;52.078;11.650;2023-08-06T00:15:43;100053.63;;;17.33;94.12
14612;BME280;7392;52.078;11.650;2023-08-06T00:18:10;100044.72;;;17.33;94.29
14612;BME280;7392;52.078;11.650;2023-08-06T00:20:39;100039.41;;;17.31;94.35
14612;BME280;7392;52.078;11.650;2023-08-06T00:23:09;100035.94;;;17.29;94.75
14612;BME280;7392;52.078;11.650;2023-08-06T00:25:37;100034.09;;;17.30;95.21
14612;BME280;7392;52.078;11.650;2023-08-06T00:28:05;100027.88;;;17.29;95.28
14612;BME280;7392;52.078;11.650;2023-08-06T00:30:32;100018.97;;;17.29;95.46
14612;BME280;7392;52.078;11.650;2023-08-06T00:33:00;100015.31;;;17.30;95.74
14612;BME280;7392;52.078;11.650;2023-08-06T00:35:29;100018.00;;;17.30;96.03
14612;BME280;7392;52.078;11.650;2023-08-06T00:37:57;100017.94;;;17.31;96.30
14612;BME280;7392;52.078;11.650;2023-08-06T00:40:26;100003.72;;;17.29;96.37
14612;BME280;7392;52.078;11.650;2023-08-06T00:42:55;100004.66;;;17.28;96.32
14612;BME280;7392;52.078;11.650;2023-08-06T00:45:23;100001.09;;;17.28;96.63
14612;BME280;7392;52.078;11.650;2023-08-06T00:47:51;99999.34;;;17.27;96.56
14612;BME280;7392;52.078;11.650;2023-08-06T00:50:19;99986.88;;;17.26;96.32
14612;BME280;7392;52.078;11.650;2023-08-06T00:52:51;99991.38;;;17.25;96.64
14612;BME280;7392;52.078;11.650;2023-08-06T00:55:19;99988.72;;;17.25;96.68
14612;BME280;7392;52.078;11.650;2023-08-06T00:57:48;99984.19;;;17.26;97.10
14612;BME280;7392;52.078;11.650;2023-08-06T01:00:17;99978.91;;;17.24;96.84
14612;BME280;7392;52.078;11.650;2023-08-06T01:02:46;99977.19;;;17.22;97.00
14612;BME280;7392;52.078;11.650;2023-08-06T01:05:14;99985.25;;;17.22;96.67
14612;BME280;7392;52.078;11.650;2023-08-06T01:07:51;99988.03;;;17.20;97.01
14612;BME280;7392;52.078;11.650;2023-08-06T01:10:41;99982.66;;;17.20;97.23
14612;BME280;7392;52.078;11.650;2023-08-06T01:13:19;99981.81;;;17.18;97.28
14612;BME280;7392;52.078;11.650;2023-08-06T01:15:54;99983.69;;;17.16;97.25
14612;BME280;7392;52.078;11.650;2023-08-06T01:18:24;99978.41;;;17.14;97.25
14612;BME280;7392;52.078;11.650;2023-08-06T01:20:53;99974.03;;;17.12;97.00
14612;BME280;7392;52.078;11.650;2023-08-06T01:23:21;99969.59;;;17.11;97.98
14612;BME280;7392;52.078;11.650;2023-08-06T01:25:56;99974.22;;;17.07;97.66
14612;BME280;7392;52.078;11.650;2023-08-06T01:28:35;99973.59;;;17.00;97.30
14612;BME280;7392;52.078;11.650;2023-08-06T01:31:10;99967.63;;;16.94;97.95
14612;BME280;7392;52.078;11.650;2023-08-06T01:33:43;99966.88;;;16.90;99.10
14612;BME280;7392;52.078;11.650;2023-08-06T01:36:15;99959.75;;;16.89;99.35
14612;BME280;7392;52.078;11.650;2023-08-06T01:38:44;99956.25;;;16.87;99.37
14612;BME280;7392;52.078;11.650;2023-08-06T01:41:12;99956.31;;;16.86;99.44
14612;BME280;7392;52.078;11.650;2023-08-06T01:43:39;99961.69;;;16.86;99.61
14612;BME280;7392;52.078;11.650;2023-08-06T01:46:07;99954.69;;;16.81;99.90
14612;BME280;7392;52.078;11.650;2023-08-06T01:48:35;99952.22;;;16.75;99.69
14612;BME280;7392;52.078;11.650;2023-08-06T01:51:04;99944.41;;;16.71;100.00
14612;BME280;7392;52.078;11.650;2023-08-06T01:53:33;99939.16;;;16.68;100.00
14612;BME280;7392;52.078;11.650;2023-08-06T01:56:01;99941.09;;;16.64;100.00
14612;BME280;7392;52.078;11.650;2023-08-06T01:58:29;99945.56;;;16.63;100.00
14612;BME280;7392;52.078;11.650;2023-08-06T02:00:57;99934.03;;;16.61;100.00
14612;BME280;7392;52.078;11.650;2023-08-06T02:03:25;99928.72;;;16.60;100.00
14612;BME280;7392;52.078;11.650;2023-08-06T02:05:53;99931.41;;;16.60;100.00
14612;BME280;7392;52.078;11.650;2023-08-06T02:08:21;99924.31;;;16.59;100.00
14612;BME280;7392;52.078;11.650;2023-08-06T02:10:50;99921.75;;;16.56;100.00
14612;BME280;7392;52.078;11.650;2023-08-06T02:13:18;99922.81;;;16.52;100.00
14612;BME280;7392;52.078;11.650;2023-08-06T02:15:46;99917.56;;;16.49;100.00
14612;BME280;7392;52.078;11.650;2023-08-06T02:18:15;99915.81;;;16.48;100.00
14612;BME280;7392;52.078;11.650;2023-08-06T02:20:42;99920.31;;;16.47;100.00
14612;BME280;7392;52.078;11.650;2023-08-06T02:23:10;99913.25;;;16.44;100.00
14612;BME280;7392;52.078;11.650;2023-08-06T02:25:38;99914.31;;;16.40;100.00
14612;BME280;7392;52.078;11.650;2023-08-06T02:28:07;99909.03;;;16.39;100.00
14612;BME280;7392;52.078;11.650;2023-08-06T02:30:36;99909.06;;;16.37;100.00
14612;BME280;7392;52.078;11.650;2023-08-06T02:33:06;99898.41;;;16.36;100.00
14612;BME280;7392;52.078;11.650;2023-08-06T02:35:33;99895.72;;;16.36;100.00
14612;BME280;7392;52.078;11.650;2023-08-06T02:38:01;99889.56;;;16.34;100.00
14612;BME280;7392;52.078;11.650;2023-08-06T02:40:29;99882.44;;;16.33;100.00
14612;BME280;7392;52.078;11.650;2023-08-06T02:42:57;99880.66;;;16.33;100.00
14612;BME280;7392;52.078;11.650;2023-08-06T02:45:26;99875.31;;;16.33;100.00
14612;BME280;7392;52.078;11.650;2023-08-06T02:47:54;99869.06;;;16.33;100.00
14612;BME280;7392;52.078;11.650;2023-08-06T02:50:21;99870.75;;;16.35;100.00
14612;BME280;7392;52.078;11.650;2023-08-06T02:52:49;99873.44;;;16.35;100.00
14612;BME280;7392;52.078;11.650;2023-08-06T02:55:17;99868.09;;;16.35;100.00
14612;BME280;7392;52.078;11.650;2023-08-06T02:57:47;99866.25;;;16.36;100.00
14612;BME280;7392;52.078;11.650;2023-08-06T03:00:17;99868.03;;;16.37;100.00
14612;BME280;7392;52.078;11.650;2023-08-06T03:02:46;99864.44;;;16.36;100.00
14612;BME280;7392;52.078;11.650;2023-08-06T03:05:23;99852.88;;;16.36;100.00
14612;BME280;7392;52.078;11.650;2023-08-06T03:07:51;99852.06;;;16.34;100.00
14612;BME280;7392;52.078;11.650;2023-08-06T03:10:23;99835.13;;;16.33;100.00
14612;BME280;7392;52.078;11.650;2023-08-06T03:12:53;99841.28;;;16.35;100.00
14612;BME280;7392;52.078;11.650;2023-08-06T03:15:22;99841.28;;;16.35;100.00
14612;BME280;7392;52.078;11.650;2023-08-06T03:17:55;99840.44;;;16.35;100.00
14612;BME280;7392;52.078;11.650;2023-08-06T03:20:25;99829.72;;;16.35;100.00
14612;BME280;7392;52.078;11.650;2023-08-06T03:22:52;99833.31;;;16.34;100.00
14612;BME280;7392;52.078;11.650;2023-08-06T03:25:20;99836.91;;;16.33;100.00
14612;BME280;7392;52.078;11.650;2023-08-06T03:27:49;99839.59;;;16.33;100.00
14612;BME280;7392;52.078;11.650;2023-08-06T03:30:18;99838.66;;;16.34;100.00
14612;BME280;7392;52.078;11.650;2023-08-06T03:32:47;99836.91;;;16.33;100.00
14612;BME280;7392;52.078;11.650;2023-08-06T03:35:20;99836.00;;;16.34;100.00
14612;BME280;7392;52.078;11.650;2023-08-06T03:37:48;99835.19;;;16.32;100.00
14612;BME280;7392;52.078;11.650;2023-08-06T03:40:16;99830.75;;;16.31;100.00
14612;BME280;7392;52.078;11.650;2023-08-06T03:42:44;99832.56;;;16.30;100.00
14612;BME280;7392;52.078;11.650;2023-08-06T03:45:12;99814.72;;;16.29;100.00
14612;BME280;7392;52.078;11.650;2023-08-06T03:47:41;99827.25;;;16.29;100.00
14612;BME280;7392;52.078;11.650;2023-08-06T03:50:09;99829.94;;;16.29;100.00
14612;BME280;7392;52.078;11.650;2023-08-06T03:52:39;99832.63;;;16.29;100.00
14612;BME280;7392;52.078;11.650;2023-08-06T03:55:07;99827.31;;;16.27;100.00
14612;BME280;7392;52.078;11.650;2023-08-06T03:57:36;99831.94;;;16.23;100.00
14612;BME280;7392;52.078;11.650;2023-08-06T04:00:04;99840.03;;;16.22;100.00
14612;BME280;7392;52.078;11.650;2023-08-06T04:02:40;99823.16;;;16.20;100.00
14612;BME280;7392;52.078;11.650;2023-08-06T04:05:10;99819.66;;;16.18;100.00
14612;BME280;7392;52.078;11.650;2023-08-06T04:07:39;99817.09;;;16.15;100.00
14612;BME280;7392;52.078;11.650;2023-08-06T04:10:08;99815.34;;;16.14;100.00
14612;BME280;7392;52.078;11.650;2023-08-06T04:12:35;99819.84;;;16.13;100.00
14612;BME280;7392;52.078;11.650;2023-08-06T04:15:06;99820.81;;;16.11;100.00
14612;BME280;7392;52.078;11.650;2023-08-06T04:17:34;99818.28;;;16.07;100.00
14612;BME280;7392;52.078;11.650;2023-08-06T04:20:02;99811.19;;;16.06;100.00
14612;BME280;7392;52.078;11.650;2023-08-06T04:22:30;99826.44;;;16.04;100.00
14612;BME280;7392;52.078;11.650;2023-08-06T04:24:59;99817.44;;;16.05;100.00
14612;BME280;7392;52.078;11.650;2023-08-06T04:27:27;99813.91;;;16.05;100.00
14612;BME280;7392;52.078;11.650;2023-08-06T04:29:55;99819.22;;;16.06;100.00
14612;BME280;7392;52.078;11.650;2023-08-06T04:32:24;99818.28;;;16.07;100.00
14612;BME280;7392;52.078;11.650;2023-08-06T04:34:55;99815.59;;;16.07;100.00
14612;BME280;7392;52.078;11.650;2023-08-06T04:37:23;99815.59;;;16.07;100.00
14612;BME280;7392;52.078;11.650;2023-08-06T04:39:52;99820.13;;;16.05;100.00
14612;BME280;7392;52.078;11.650;2023-08-06T04:42:21;99813.91;;;16.05;100.00
14612;BME280;7392;52.078;11.650;2023-08-06T04:44:47;99806.75;;;16.05;100.00
14612;BME280;7392;52.078;11.650;2023-08-06T04:47:15;99809.41;;;16.05;100.00
14612;BME280;7392;52.078;11.650;2023-08-06T04:49:44;99804.00;;;16.07;100.00
14612;BME280;7392;52.078;11.650;2023-08-06T04:52:11;99814.66;;;16.08;100.00
14612;BME280;7392;52.078;11.650;2023-08-06T04:54:39;99811.06;;;16.10;100.00
14612;BME280;7392;52.078;11.650;2023-08-06T04:57:07;99813.78;;;16.08;100.00
14612;BME280;7392;52.078;11.650;2023-08-06T04:59:36;99810.31;;;16.06;100.00
14612;BME280;7392;52.078;11.650;2023-08-06T05:02:04;99808.50;;;16.06;100.00
14612;BME280;7392;52.078;11.650;2023-08-06T05:04:32;99806.75;;;16.05;100.00
14612;BME280;7392;52.078;11.650;2023-08-06T05:07:00;99801.47;;;16.04;100.00
14612;BME280;7392;52.078;11.650;2023-08-06T05:09:28;99799.72;;;16.03;100.00
14612;BME280;7392;52.078;11.650;2023-08-06T05:11:55;99802.38;;;16.03;100.00
14612;BME280;7392;52.078;11.650;2023-08-06T05:14:23;99785.41;;;16.04;100.00
14612;BME280;7392;52.078;11.650;2023-08-06T05:16:52;99792.50;;;16.05;100.00
14612;BME280;7392;52.078;11.650;2023-08-06T05:19:20;99782.59;;;16.07;100.00
14612;BME280;7392;52.078;11.650;2023-08-06T05:21:48;99781.66;;;16.08;100.00
14612;BME280;7392;52.078;11.650;2023-08-06T05:24:16;99787.81;;;16.10;100.00
14612;BME280;7392;52.078;11.650;2023-08-06T05:26:47;99794.88;;;16.13;100.00
14612;BME280;7392;52.078;11.650;2023-08-06T05:29:16;99785.03;;;16.13;100.00
14612;BME280;7392;52.078;11.650;2023-08-06T05:31:44;99786.69;;;16.16;100.00
14612;BME280;7392;52.078;11.650;2023-08-06T05:34:13;99785.78;;;16.17;100.00
14612;BME280;7392;52.078;11.650;2023-08-06T05:36:41;99782.09;;;16.19;100.00
14612;BME280;7392;52.078;11.650;2023-08-06T05:39:09;99781.16;;;16.20;100.00
14612;BME280;7392;52.078;11.650;2023-08-06T05:41:37;99788.28;;;16.21;100.00
14612;BME280;7392;52.078;11.650;2023-08-06T05:44:04;99779.28;;;16.22;100.00
14612;BME280;7392;52.078;11.650;2023-08-06T05:46:32;99774.75;;;16.24;100.00
14612;BME280;7392;52.078;11.650;2023-08-06T05:49:00;99771.13;;;16.25;100.00
14612;BME280;7392;52.078;11.650;2023-08-06T05:51:29;99760.34;;;16.27;100.00
14612;BME280;7392;52.078;11.650;2023-08-06T05:53:57;99767.41;;;16.30;100.00
14612;BME280;7392;52.078;11.650;2023-08-06T05:56:25;99768.31;;;16.29;100.00
14612;BME280;7392;52.078;11.650;2023-08-06T05:58:52;99764.63;;;16.31;100.00
14612;BME280;7392;52.078;11.650;2023-08-06T06:01:20;99771.69;;;16.34;100.00
14612;BME280;7392;52.078;11.650;2023-08-06T06:03:48;99770.69;;;16.36;100.00
14612;BME280;7392;52.078;11.650;2023-08-06T06:06:16;99772.44;;;16.37;100.00
14612;BME280;7392;52.078;11.650;2023-08-06T06:08:46;99776.72;;;16.41;100.00
14612;BME280;7392;52.078;11.650;2023-08-06T06:11:13;99775.78;;;16.42;100.00
14612;BME280;7392;52.078;11.650;2023-08-06T06:13:41;99770.25;;;16.47;100.00
14612;BME280;7392;52.078;11.650;2023-08-06T06:16:10;99771.91;;;16.50;100.00
14612;BME280;7392;52.078;11.650;2023-08-06T06:18:38;99769.97;;;16.53;100.00
14612;BME280;7392;52.078;11.650;2023-08-06T06:21:05;99772.53;;;16.56;100.00
14612;BME280;7392;52.078;11.650;2023-08-06T06:23:33;99772.41;;;16.59;100.00
14612;BME280;7392;52.078;11.650;2023-08-06T06:26:02;99774.97;;;16.62;100.00
14612;BME280;7392;52.078;11.650;2023-08-06T06:28:30;99772.97;;;16.68;100.00
14612;BME280;7392;52.078;11.650;2023-08-06T06:31:00;99768.34;;;16.71;100.00
14612;BME280;7392;52.078;11.650;2023-08-06T06:33:27;99760.16;;;16.74;100.00
14612;BME280;7392;52.078;11.650;2023-08-06T06:35:55;99758.22;;;16.78;100.00
14612;BME280;7392;52.078;11.650;2023-08-06T06:38:23;99765.31;;;16.79;100.00
14612;BME280;7392;52.078;11.650;2023-08-06T06:40:54;99766.13;;;16.81;100.00
14612;BME280;7392;52.078;11.650;2023-08-06T06:43:24;99770.53;;;16.82;100.00
14612;BME280;7392;52.078;11.650;2023-08-06T06:45:56;99765.09;;;16.85;100.00
14612;BME280;7392;52.078;11.650;2023-08-06T06:48:26;99762.28;;;16.88;100.00
14612;BME280;7392;52.078;11.650;2023-08-06T06:50:54;99765.69;;;16.92;100.00
14612;BME280;7392;52.078;11.650;2023-08-06T06:53:22;99759.41;;;16.93;100.00
14612;BME280;7392;52.078;11.650;2023-08-06T06:55:54;99762.00;;;16.94;100.00
14612;BME280;7392;52.078;11.650;2023-08-06T06:58:22;99754.78;;;16.96;100.00
14612;BME280;7392;52.078;11.650;2023-08-06T07:00:51;99762.53;;;17.02;100.00
14612;BME280;7392;52.078;11.650;2023-08-06T07:03:19;99755.22;;;17.06;100.00
14612;BME280;7392;52.078;11.650;2023-08-06T07:05:47;99754.09;;;17.12;100.00
14612;BME280;7392;52.078;11.650;2023-08-06T07:08:15;99757.44;;;17.17;100.00
14612;BME280;7392;52.078;11.650;2023-08-06T07:10:43;99759.88;;;17.22;100.00
14612;BME280;7392;52.078;11.650;2023-08-06T07:13:10;99757.88;;;17.27;100.00
14612;BME280;7392;52.078;11.650;2023-08-06T07:15:38;99751.38;;;17.32;100.00
14612;BME280;7392;52.078;11.650;2023-08-06T07:18:07;99751.97;;;17.39;100.00
14612;BME280;7392;52.078;11.650;2023-08-06T07:20:35;99757.03;;;17.45;100.00
14612;BME280;7392;52.078;11.650;2023-08-06T07:23:03;99751.47;;;17.50;100.00
14612;BME280;7392;52.078;11.650;2023-08-06T07:25:34;99760.25;;;17.53;100.00
14612;BME280;7392;52.078;11.650;2023-08-06T07:28:02;99755.72;;;17.54;100.00
14612;BME280;7392;52.078;11.650;2023-08-06T07:30:29;99753.03;;;17.54;100.00
14612;BME280;7392;52.078;11.650;2023-08-06T07:32:57;99747.41;;;17.60;100.00
14612;BME280;7392;52.078;11.650;2023-08-06T07:35:28;99752.50;;;17.66;100.00
14612;BME280;7392;52.078;11.650;2023-08-06T07:37:56;99750.28;;;17.74;100.00
14612;BME280;7392;52.078;11.650;2023-08-06T07:40:24;99749.09;;;17.82;100.00
14612;BME280;7392;52.078;11.650;2023-08-06T07:42:52;99749.00;;;17.83;100.00
14612;BME280;7392;52.078;11.650;2023-08-06T07:45:19;99747.00;;;17.88;100.00
14612;BME280;7392;52.078;11.650;2023-08-06T07:47:47;99748.59;;;17.92;100.00
14612;BME280;7392;52.078;11.650;2023-08-06T07:50:15;99742.94;;;17.99;100.00
14612;BME280;7392;52.078;11.650;2023-08-06T07:52:44;99739.84;;;18.06;100.00
14612;BME280;7392;52.078;11.650;2023-08-06T07:55:12;99740.34;;;18.15;100.00
14612;BME280;7392;52.078;11.650;2023-08-06T07:57:40;99742.72;;;18.21;100.00
14612;BME280;7392;52.078;11.650;2023-08-06T08:00:08;99741.56;;;18.26;100.00
14612;BME280;7392;52.078;11.650;2023-08-06T08:02:40;99739.59;;;18.30;100.00
14612;BME280;7392;52.078;11.650;2023-08-06T08:05:08;99735.56;;;18.39;100.00
14612;BME280;7392;52.078;11.650;2023-08-06T08:07:35;99742.38;;;18.46;100.00
14612;BME280;7392;52.078;11.650;2023-08-06T08:10:06;99738.75;;;18.47;100.00
14612;BME280;7392;52.078;11.650;2023-08-06T08:12:34;99736.13;;;18.45;100.00
14612;BME280;7392;52.078;11.650;2023-08-06T08:15:02;99736.06;;;18.47;100.00
14612;BME280;7392;52.078;11.650;2023-08-06T08:17:30;99736.63;;;18.54;100.00
14612;BME280;7392;52.078;11.650;2023-08-06T08:19:58;99734.41;;;18.62;100.00
14612;BME280;7392;52.078;11.650;2023-08-06T08:22:26;99735.69;;;18.72;100.00
14612;BME280;7392;52.078;11.650;2023-08-06T08:24:54;99743.41;;;18.78;100.00
14612;BME280;7392;52.078;11.650;2023-08-06T08:27:23;99733.44;;;18.80;98.79
14612;BME280;7392;52.078;11.650;2023-08-06T08:29:50;99741.38;;;18.83;99.29
14612;BME280;7392;52.078;11.650;2023-08-06T08:32:18;99729.44;;;18.89;98.42
14612;BME280;7392;52.078;11.650;2023-08-06T08:34:46;99739.63;;;19.00;99.20
14612;BME280;7392;52.078;11.650;2023-08-06T08:37:14;99747.22;;;19.09;98.88
14612;BME280;7392;52.078;11.650;2023-08-06T08:39:42;99733.38;;;19.17;97.59
14612;BME280;7392;52.078;11.650;2023-08-06T08:42:10;99734.75;;;19.24;96.48
14612;BME280;7392;52.078;11.650;2023-08-06T08:44:39;99723.50;;;19.33;96.66
14612;BME280;7392;52.078;11.650;2023-08-06T08:47:10;99725.53;;;19.46;97.06
14612;BME280;7392;52.078;11.650;2023-08-06T08:49:38;99716.69;;;19.59;98.22
14612;BME280;7392;52.078;11.650;2023-08-06T08:52:07;99720.75;;;19.67;95.38
14612;BME280;7392;52.078;11.650;2023-08-06T08:54:38;99720.34;;;19.74;95.35
14612;BME280;7392;52.078;11.650;2023-08-06T08:57:06;99722.53;;;19.84;95.46
14612;BME280;7392;52.078;11.650;2023-08-06T08:59:34;99717.59;;;19.92;94.83
14612;BME280;7392;52.078;11.650;2023-08-06T09:02:03;99719.66;;;20.03;94.19
14612;BME280;7392;52.078;11.650;2023-08-06T09:04:32;99706.72;;;20.09;93.12
14612;BME280;7392;52.078;11.650;2023-08-06T09:07:02;99703.75;;;20.14;92.20
14612;BME280;7392;52.078;11.650;2023-08-06T09:09:31;99700.78;;;20.18;90.41
14612;BME280;7392;52.078;11.650;2023-08-06T09:12:01;99702.53;;;20.20;87.98
14612;BME280;7392;52.078;11.650;2023-08-06T09:14:33;99697.13;;;20.20;87.79
14612;BME280;7392;52.078;11.650;2023-08-06T09:17:02;99692.44;;;20.23;87.83
14612;BME280;7392;52.078;11.650;2023-08-06T09:19:31;99691.78;;;20.34;88.89
14612;BME280;7392;52.078;11.650;2023-08-06T09:21:59;99689.31;;;20.45;89.19
14612;BME280;7392;52.078;11.650;2023-08-06T09:24:27;99698.50;;;20.57;89.36
14612;BME280;7392;52.078;11.650;2023-08-06T09:26:55;99692.41;;;20.69;89.08
14612;BME280;7392;52.078;11.650;2023-08-06T09:29:24;99693.75;;;20.77;87.58
14612;BME280;7392;52.078;11.650;2023-08-06T09:31:52;99688.09;;;20.81;85.84
14612;BME280;7392;52.078;11.650;2023-08-06T09:34:23;99684.81;;;20.76;84.42
14612;BME280;7392;52.078;11.650;2023-08-06T09:36:52;99678.56;;;20.76;83.16
14612;BME280;7392;52.078;11.650;2023-08-06T09:39:21;99680.34;;;20.75;82.97
14612;BME280;7392;52.078;11.650;2023-08-06T09:41:55;99681.53;;;20.85;84.79
14612;BME280;7392;52.078;11.650;2023-08-06T09:44:26;99678.38;;;20.93;83.58
14612;BME280;7392;52.078;11.650;2023-08-06T09:46:55;99677.97;;;20.99;82.50
14612;BME280;7392;52.078;11.650;2023-08-06T09:49:27;99681.28;;;21.04;83.31
14612;BME280;7392;52.078;11.650;2023-08-06T09:51:56;99682.53;;;21.13;84.19
14612;BME280;7392;52.078;11.650;2023-08-06T09:54:27;99679.25;;;21.22;83.58
14612;BME280;7392;52.078;11.650;2023-08-06T09:56:56;99667.69;;;21.20;79.54
14612;BME280;7392;52.078;11.650;2023-08-06T09:59:24;99665.84;;;21.21;79.26
14612;BME280;7392;52.078;11.650;2023-08-06T10:01:54;99668.13;;;21.41;80.41
14612;BME280;7392;52.078;11.650;2023-08-06T10:04:23;99662.72;;;21.70;82.01
14612;BME280;7392;52.078;11.650;2023-08-06T10:07:00;99660.84;;;21.85;82.75
14612;BME280;7392;52.078;11.650;2023-08-06T10:09:28;99660.03;;;21.97;82.54
14612;BME280;7392;52.078;11.650;2023-08-06T10:11:56;99653.34;;;22.03;81.84
14612;BME280;7392;52.078;11.650;2023-08-06T10:14:28;99664.03;;;22.04;80.63
14612;BME280;7392;52.078;11.650;2023-08-06T10:16:58;99667.41;;;22.08;80.03
14612;BME280;7392;52.078;11.650;2023-08-06T10:19:27;99662.66;;;22.12;79.00
14612;BME280;7392;52.078;11.650;2023-08-06T10:22:11;99659.91;;;22.26;79.61
14612;BME280;7392;52.078;11.650;2023-08-06T10:24:48;99654.78;;;22.36;77.32
14612;BME280;7392;52.078;11.650;2023-08-06T10:27:28;99651.13;;;22.63;79.19
14612;BME280;7392;52.078;11.650;2023-08-06T10:30:21;99645.84;;;23.00;81.29
14612;BME280;7392;52.078;11.650;2023-08-06T10:32:50;99639.56;;;23.25;80.33
14612;BME280;7392;52.078;11.650;2023-08-06T10:35:31;99640.50;;;23.37;79.26
14612;BME280;7392;52.078;11.650;2023-08-06T10:38:07;99639.63;;;23.36;76.86
14612;BME280;7392;52.078;11.650;2023-08-06T10:40:36;99641.38;;;23.37;75.84
14612;BME280;7392;52.078;11.650;2023-08-06T10:43:06;99639.75;;;23.34;74.46
14612;BME280;7392;52.078;11.650;2023-08-06T10:45:36;99642.22;;;23.38;75.84
14612;BME280;7392;52.078;11.650;2023-08-06T10:48:04;99640.69;;;23.46;76.51
14612;BME280;7392;52.078;11.650;2023-08-06T10:50:32;99630.91;;;23.57;76.93
14612;BME280;7392;52.078;11.650;2023-08-06T10:53:04;99628.91;;;23.71;77.03
14612;BME280;7392;52.078;11.650;2023-08-06T10:55:34;99623.97;;;23.89;76.52
14612;BME280;7392;52.078;11.650;2023-08-06T10:58:03;99617.59;;;23.90;74.14
14612;BME280;7392;52.078;11.650;2023-08-06T11:00:31;99616.19;;;24.09;75.38
14612;BME280;7392;52.078;11.650;2023-08-06T11:02:59;99609.19;;;24.18;74.98
14612;BME280;7392;52.078;11.650;2023-08-06T11:05:27;99608.25;;;24.30;74.77
14612;BME280;7392;52.078;11.650;2023-08-06T11:07:54;99611.63;;;24.45;74.70
14612;BME280;7392;52.078;11.650;2023-08-06T11:10:22;99603.78;;;24.64;75.16
14612;BME280;7392;52.078;11.650;2023-08-06T11:12:51;99604.28;;;24.70;73.39
14612;BME280;7392;52.078;11.650;2023-08-06T11:15:20;99600.00;;;24.67;72.66
14612;BME280;7392;52.078;11.650;2023-08-06T11:17:48;99606.38;;;24.66;72.76
14612;BME280;7392;52.078;11.650;2023-08-06T11:20:16;99600.97;;;24.66;71.54
14612;BME280;7392;52.078;11.650;2023-08-06T11:22:44;99597.88;;;24.71;72.03
14612;BME280;7392;52.078;11.650;2023-08-06T11:25:12;99594.44;;;24.80;71.93
14612;BME280;7392;52.078;11.650;2023-08-06T11:27:39;99582.72;;;25.02;72.48
14612;BME280;7392;52.078;11.650;2023-08-06T11:30:10;99590.22;;;25.21;71.56
14612;BME280;7392;52.078;11.650;2023-08-06T11:32:45;99581.25;;;25.32;70.44
14612;BME280;7392;52.078;11.650;2023-08-06T11:35:14;99579.38;;;25.44;71.90
14612;BME280;7392;52.078;11.650;2023-08-06T11:37:43;99580.53;;;25.62;71.40
14612;BME280;7392;52.078;11.650;2023-08-06T11:40:13;99575.16;;;25.94;72.28
14612;BME280;7392;52.078;11.650;2023-08-06T11:42:42;99579.75;;;26.15;72.87
14612;BME280;7392;52.078;11.650;2023-08-06T11:45:11;99576.53;;;26.21;70.25
14612;BME280;7392;52.078;11.650;2023-08-06T11:47:39;99576.59;;;26.31;69.50
14612;BME280;7392;52.078;11.650;2023-08-06T11:50:08;99576.66;;;26.62;70.02
14612;BME280;7392;52.078;11.650;2023-08-06T11:52:39;99583.31;;;26.69;67.39
14612;BME280;7392;52.078;11.650;2023-08-06T11:55:09;99573.69;;;26.65;67.71
14612;BME280;7392;52.078;11.650;2023-08-06T11:57:38;99576.44;;;26.54;66.04
14612;BME280;7392;52.078;11.650;2023-08-06T12:00:08;99573.50;;;26.36;65.69
14612;BME280;7392;52.078;11.650;2023-08-06T12:02:44;99570.69;;;26.26;65.50
14612;BME280;7392;52.078;11.650;2023-08-06T12:05:13;99573.47;;;26.15;65.23
14612;BME280;7392;52.078;11.650;2023-08-06T12:07:44;99568.03;;;26.15;65.62
14612;BME280;7392;52.078;11.650;2023-08-06T12:10:12;99570.22;;;26.21;65.51
14612;BME280;7392;52.078;11.650;2023-08-06T12:12:40;99567.41;;;26.32;65.64
14612;BME280;7392;52.078;11.650;2023-08-06T12:15:09;99564.44;;;26.56;66.67
14612;BME280;7392;52.078;11.650;2023-08-06T12:17:38;99557.84;;;26.80;66.65
14612;BME280;7392;52.078;11.650;2023-08-06T12:20:08;99562.66;;;26.97;65.95
14612;BME280;7392;52.078;11.650;2023-08-06T12:22:37;99570.72;;;27.09;64.08
14612;BME280;7392;52.078;11.650;2023-08-06T12:25:07;99562.34;;;27.31;65.00
14612;BME280;7392;52.078;11.650;2023-08-06T12:27:38;99560.53;;;27.32;62.59
14612;BME280;7392;52.078;11.650;2023-08-06T12:30:07;99561.88;;;27.26;62.16
14612;BME280;7392;52.078;11.650;2023-08-06T12:32:35;99558.44;;;27.24;62.48
14612;BME280;7392;52.078;11.650;2023-08-06T12:35:04;99554.69;;;27.15;61.41
14612;BME280;7392;52.078;11.650;2023-08-06T12:37:35;99560.53;;;27.11;61.48
14612;BME280;7392;52.078;11.650;2023-08-06T12:40:06;99558.97;;;27.08;61.38
14612;BME280;7392;52.078;11.650;2023-08-06T12:42:54;99556.97;;;27.10;62.02
14612;BME280;7392;52.078;11.650;2023-08-06T12:45:22;99553.72;;;27.26;62.98
14612;BME280;7392;52.078;11.650;2023-08-06T12:47:49;99549.78;;;27.40;62.86
14612;BME280;7392;52.078;11.650;2023-08-06T12:50:17;99537.31;;;27.47;62.73
14612;BME280;7392;52.078;11.650;2023-08-06T12:52:46;99552.38;;;27.51;61.74
14612;BME280;7392;52.078;11.650;2023-08-06T12:55:14;99543.19;;;27.52;61.28
14612;BME280;7392;52.078;11.650;2023-08-06T12:57:42;99543.66;;;27.67;61.32
14612;BME280;7392;52.078;11.650;2023-08-06T13:00:24;99543.63;;;27.77;61.81
14612;BME280;7392;52.078;11.650;2023-08-06T13:02:52;99553.41;;;27.70;58.35
14612;BME280;7392;52.078;11.650;2023-08-06T13:05:20;99553.38;;;27.60;58.91